sensor_id;sensor_type;location;lat;lon;timestamp;temperature;humidity
65582;DHT22;52231;40.090;18.348;2023-03-11T00:00:45;14.60;74.90
65582;DHT22;52231;40.090;18.348;2023-03-11T00:03:16;14.50;75.50
65582;DHT22;52231;40.090;18.348;2023-03-11T00:05:45;14.40;76.10
65582;DHT22;52231;40.090;18.348;2023-03-11T00:08:16;14.30;76.40
65582;DHT22;52231;40.090;18.348;2023-03-11T00:10:46;14.20;77.00
65582;DHT22;52231;40.090;18.348;2023-03-11T00:13:16;14.10;77.50
65582;DHT22;52231;40.090;18.348;2023-03-11T00:15:46;13.90;78.00
65582;DHT22;52231;40.090;18.348;2023-03-11T00:18:16;13.80;78.50
65582;DHT22;52231;40.090;18.348;2023-03-11T00:20:45;13.70;78.90
65582;DHT22;52231;40.090;18.348;2023-03-11T00:23:14;13.60;79.40
65582;DHT22;52231;40.090;18.348;2023-03-11T00:25:44;13.50;79.70
65582;DHT22;52231;40.090;18.348;2023-03-11T00:28:14;13.40;80.00
65582;DHT22;52231;40.090;18.348;2023-03-11T00:30:44;13.40;80.30
65582;DHT22;52231;40.090;18.348;2023-03-11T00:33:14;13.30;80.70
65582;DHT22;52231;40.090;18.348;2023-03-11T00:35:43;13.30;81.00
65582;DHT22;52231;40.090;18.348;2023-03-11T00:38:14;13.20;81.10
65582;DHT22;52231;40.090;18.348;2023-03-11T00:40:45;13.10;81.00
65582;DHT22;52231;40.090;18.348;2023-03-11T00:43:15;13.10;81.00
65582;DHT22;52231;40.090;18.348;2023-03-11T00:45:44;13.10;80.90
65582;DHT22;52231;40.090;18.348;2023-03-11T00:48:13;13.00;80.50
65582;DHT22;52231;40.090;18.348;2023-03-11T00:50:43;13.00;80.30
65582;DHT22;52231;40.090;18.348;2023-03-11T00:53:12;13.00;80.10
65582;DHT22;52231;40.090;18.348;2023-03-11T00:55:40;13.00;79.30
65582;DHT22;52231;40.090;18.348;2023-03-11T00:58:11;13.00;78.40
65582;DHT22;52231;40.090;18.348;2023-03-11T01:00:53;13.00;77.80
65582;DHT22;52231;40.090;18.348;2023-03-11T01:03:22;13.00;77.50
65582;DHT22;52231;40.090;18.348;2023-03-11T01:05:50;13.00;77.50
65582;DHT22;52231;40.090;18.348;2023-03-11T01:08:19;13.00;77.00
65582;DHT22;52231;40.090;18.348;2023-03-11T01:10:47;13.00;76.70
65582;DHT22;52231;40.090;18.348;2023-03-11T01:13:15;13.00;76.50
65582;DHT22;52231;40.090;18.348;2023-03-11T01:15:43;13.00;75.80
65582;DHT22;52231;40.090;18.348;2023-03-11T01:18:12;13.00;75.70
65582;DHT22;52231;40.090;18.348;2023-03-11T01:20:40;13.00;75.50
65582;DHT22;52231;40.090;18.348;2023-03-11T01:23:11;13.00;75.30
65582;DHT22;52231;40.090;18.348;2023-03-11T01:25:42;13.00;75.10
65582;DHT22;52231;40.090;18.348;2023-03-11T01:28:10;13.00;74.90
65582;DHT22;52231;40.090;18.348;2023-03-11T01:30:40;13.00;74.50
65582;DHT22;52231;40.090;18.348;2023-03-11T01:33:15;13.10;74.00
65582;DHT22;52231;40.090;18.348;2023-03-11T01:35:44;13.10;73.40
65582;DHT22;52231;40.090;18.348;2023-03-11T01:38:13;13.10;73.40
65582;DHT22;52231;40.090;18.348;2023-03-11T01:40:45;13.00;73.10
65582;DHT22;52231;40.090;18.348;2023-03-11T01:43:48;13.00;72.70
65582;DHT22;52231;40.090;18.348;2023-03-11T01:49:29;12.90;72.30
65582;DHT22;52231;40.090;18.348;2023-03-11T01:52:02;12.90;72.00
65582;DHT22;52231;40.090;18.348;2023-03-11T01:54:41;12.90;72.20
65582;DHT22;52231;40.090;18.348;2023-03-11T01:57:12;12.90;72.50
65582;DHT22;52231;40.090;18.348;2023-03-11T01:59:46;12.90;73.00
65582;DHT22;52231;40.090;18.348;2023-03-11T02:02:24;12.80;73.50
65582;DHT22;52231;40.090;18.348;2023-03-11T02:04:53;12.80;74.00
65582;DHT22;52231;40.090;18.348;2023-03-11T02:07:23;12.70;74.70
65582;DHT22;52231;40.090;18.348;2023-03-11T02:09:52;12.70;75.10
65582;DHT22;52231;40.090;18.348;2023-03-11T02:12:21;12.70;75.80
65582;DHT22;52231;40.090;18.348;2023-03-11T02:14:50;12.60;76.10
65582;DHT22;52231;40.090;18.348;2023-03-11T02:17:21;12.60;76.90
65582;DHT22;52231;40.090;18.348;2023-03-11T02:22:47;12.60;77.60
65582;DHT22;52231;40.090;18.348;2023-03-11T02:25:25;12.50;78.00
65582;DHT22;52231;40.090;18.348;2023-03-11T02:27:54;12.50;78.50
65582;DHT22;52231;40.090;18.348;2023-03-11T02:30:26;12.40;79.00
65582;DHT22;52231;40.090;18.348;2023-03-11T02:32:55;12.30;79.30
65582;DHT22;52231;40.090;18.348;2023-03-11T02:35:24;12.30;79.50
65582;DHT22;52231;40.090;18.348;2023-03-11T02:37:54;12.20;79.90
65582;DHT22;52231;40.090;18.348;2023-03-11T02:42:58;12.20;80.60
65582;DHT22;52231;40.090;18.348;2023-03-11T02:45:28;12.10;80.80
65582;DHT22;52231;40.090;18.348;2023-03-11T02:47:58;12.10;81.00
65582;DHT22;52231;40.090;18.348;2023-03-11T02:50:30;12.10;81.20
65582;DHT22;52231;40.090;18.348;2023-03-11T02:53:01;12.00;81.30
65582;DHT22;52231;40.090;18.348;2023-03-11T02:55:31;12.10;81.00
65582;DHT22;52231;40.090;18.348;2023-03-11T02:58:00;12.20;80.80
65582;DHT22;52231;40.090;18.348;2023-03-11T03:00:29;12.30;80.60
65582;DHT22;52231;40.090;18.348;2023-03-11T03:03:02;12.30;80.60
65582;DHT22;52231;40.090;18.348;2023-03-11T03:05:31;12.30;80.60
65582;DHT22;52231;40.090;18.348;2023-03-11T03:08:00;12.30;80.70
65582;DHT22;52231;40.090;18.348;2023-03-11T03:10:29;12.30;80.80
65582;DHT22;52231;40.090;18.348;2023-03-11T03:12:58;12.30;80.90
65582;DHT22;52231;40.090;18.348;2023-03-11T03:15:26;12.30;81.00
65582;DHT22;52231;40.090;18.348;2023-03-11T03:17:54;12.30;81.20
65582;DHT22;52231;40.090;18.348;2023-03-11T03:20:22;12.30;81.20
65582;DHT22;52231;40.090;18.348;2023-03-11T03:22:56;12.30;81.40
65582;DHT22;52231;40.090;18.348;2023-03-11T03:25:28;12.30;81.50
65582;DHT22;52231;40.090;18.348;2023-03-11T03:28:00;12.30;81.70
65582;DHT22;52231;40.090;18.348;2023-03-11T03:30:31;12.30;82.00
65582;DHT22;52231;40.090;18.348;2023-03-11T03:32:59;12.30;82.10
65582;DHT22;52231;40.090;18.348;2023-03-11T03:35:29;12.30;82.10
65582;DHT22;52231;40.090;18.348;2023-03-11T03:38:18;12.30;82.20
65582;DHT22;52231;40.090;18.348;2023-03-11T03:40:48;12.30;82.20
65582;DHT22;52231;40.090;18.348;2023-03-11T03:43:19;12.30;82.30
65582;DHT22;52231;40.090;18.348;2023-03-11T03:45:56;12.30;82.40
65582;DHT22;52231;40.090;18.348;2023-03-11T03:48:28;12.30;82.50
65582;DHT22;52231;40.090;18.348;2023-03-11T03:51:06;12.30;82.50
65582;DHT22;52231;40.090;18.348;2023-03-11T03:53:36;12.30;82.60
65582;DHT22;52231;40.090;18.348;2023-03-11T03:56:07;12.20;82.70
65582;DHT22;52231;40.090;18.348;2023-03-11T03:58:37;12.20;82.80
65582;DHT22;52231;40.090;18.348;2023-03-11T04:01:06;12.20;82.90
65582;DHT22;52231;40.090;18.348;2023-03-11T04:03:36;12.10;83.10
65582;DHT22;52231;40.090;18.348;2023-03-11T04:06:21;12.10;83.20
65582;DHT22;52231;40.090;18.348;2023-03-11T04:08:55;12.10;83.30
65582;DHT22;52231;40.090;18.348;2023-03-11T04:11:29;12.10;83.50
65582;DHT22;52231;40.090;18.348;2023-03-11T04:13:59;12.10;83.50
65582;DHT22;52231;40.090;18.348;2023-03-11T04:16:30;12.10;83.60
65582;DHT22;52231;40.090;18.348;2023-03-11T04:19:06;12.10;83.60
65582;DHT22;52231;40.090;18.348;2023-03-11T04:21:35;12.20;83.60
65582;DHT22;52231;40.090;18.348;2023-03-11T04:24:04;12.20;83.50
65582;DHT22;52231;40.090;18.348;2023-03-11T04:26:35;12.20;83.50
65582;DHT22;52231;40.090;18.348;2023-03-11T04:29:06;12.20;83.60
65582;DHT22;52231;40.090;18.348;2023-03-11T04:31:40;12.30;83.60
65582;DHT22;52231;40.090;18.348;2023-03-11T04:34:09;12.30;83.60
65582;DHT22;52231;40.090;18.348;2023-03-11T04:36:38;12.30;83.70
65582;DHT22;52231;40.090;18.348;2023-03-11T04:39:07;12.30;83.70
65582;DHT22;52231;40.090;18.348;2023-03-11T04:41:40;12.30;83.70
65582;DHT22;52231;40.090;18.348;2023-03-11T04:44:11;12.30;83.60
65582;DHT22;52231;40.090;18.348;2023-03-11T04:46:40;12.40;83.60
65582;DHT22;52231;40.090;18.348;2023-03-11T04:49:09;12.40;83.60
65582;DHT22;52231;40.090;18.348;2023-03-11T04:51:37;12.40;83.60
65582;DHT22;52231;40.090;18.348;2023-03-11T04:54:07;12.40;83.50
65582;DHT22;52231;40.090;18.348;2023-03-11T04:56:35;12.40;83.50
65582;DHT22;52231;40.090;18.348;2023-03-11T04:59:05;12.40;83.60
65582;DHT22;52231;40.090;18.348;2023-03-11T05:01:35;12.40;83.60
65582;DHT22;52231;40.090;18.348;2023-03-11T05:04:05;12.40;83.70
65582;DHT22;52231;40.090;18.348;2023-03-11T05:06:34;12.40;83.80
65582;DHT22;52231;40.090;18.348;2023-03-11T05:09:03;12.40;83.70
65582;DHT22;52231;40.090;18.348;2023-03-11T05:11:35;12.40;83.70
65582;DHT22;52231;40.090;18.348;2023-03-11T05:14:03;12.40;83.80
65582;DHT22;52231;40.090;18.348;2023-03-11T05:16:31;12.40;83.80
65582;DHT22;52231;40.090;18.348;2023-03-11T05:19:00;12.40;83.70
65582;DHT22;52231;40.090;18.348;2023-03-11T05:21:28;12.40;83.70
65582;DHT22;52231;40.090;18.348;2023-03-11T05:23:57;12.40;83.70
65582;DHT22;52231;40.090;18.348;2023-03-11T05:26:25;12.40;83.60
65582;DHT22;52231;40.090;18.348;2023-03-11T05:28:53;12.40;83.60
65582;DHT22;52231;40.090;18.348;2023-03-11T05:31:21;12.40;83.70
65582;DHT22;52231;40.090;18.348;2023-03-11T05:33:49;12.40;83.70
65582;DHT22;52231;40.090;18.348;2023-03-11T05:36:18;12.40;83.80
65582;DHT22;52231;40.090;18.348;2023-03-11T05:38:46;12.50;83.80
65582;DHT22;52231;40.090;18.348;2023-03-11T05:41:15;12.50;83.80
65582;DHT22;52231;40.090;18.348;2023-03-11T05:43:45;12.60;83.70
65582;DHT22;52231;40.090;18.348;2023-03-11T05:46:14;12.80;83.40
65582;DHT22;52231;40.090;18.348;2023-03-11T05:48:42;13.00;83.10
65582;DHT22;52231;40.090;18.348;2023-03-11T05:51:12;13.10;82.70
65582;DHT22;52231;40.090;18.348;2023-03-11T05:53:45;13.20;82.30
65582;DHT22;52231;40.090;18.348;2023-03-11T05:56:22;13.30;82.00
65582;DHT22;52231;40.090;18.348;2023-03-11T05:58:52;13.50;81.70
65582;DHT22;52231;40.090;18.348;2023-03-11T06:01:20;13.50;81.20
65582;DHT22;52231;40.090;18.348;2023-03-11T06:03:48;13.70;80.80
65582;DHT22;52231;40.090;18.348;2023-03-11T06:06:17;13.80;80.50
65582;DHT22;52231;40.090;18.348;2023-03-11T06:08:46;13.90;80.10
65582;DHT22;52231;40.090;18.348;2023-03-11T06:11:19;14.00;79.80
65582;DHT22;52231;40.090;18.348;2023-03-11T06:13:47;14.20;79.20
65582;DHT22;52231;40.090;18.348;2023-03-11T06:16:15;14.30;78.90
65582;DHT22;52231;40.090;18.348;2023-03-11T06:18:44;14.30;78.50
65582;DHT22;52231;40.090;18.348;2023-03-11T06:21:22;14.50;78.30
65582;DHT22;52231;40.090;18.348;2023-03-11T06:23:51;14.60;77.90
65582;DHT22;52231;40.090;18.348;2023-03-11T06:26:20;14.80;77.20
65582;DHT22;52231;40.090;18.348;2023-03-11T06:28:50;15.00;76.60
65582;DHT22;52231;40.090;18.348;2023-03-11T06:31:25;15.40;75.30
65582;DHT22;52231;40.090;18.348;2023-03-11T06:34:24;15.80;74.20
65582;DHT22;52231;40.090;18.348;2023-03-11T06:37:07;16.20;72.60
65582;DHT22;52231;40.090;18.348;2023-03-11T06:39:38;16.40;71.50
65582;DHT22;52231;40.090;18.348;2023-03-11T06:42:13;16.50;70.90
65582;DHT22;52231;40.090;18.348;2023-03-11T06:44:42;16.30;70.40
65582;DHT22;52231;40.090;18.348;2023-03-11T06:47:10;16.30;71.00
65582;DHT22;52231;40.090;18.348;2023-03-11T06:49:39;16.20;70.80
65582;DHT22;52231;40.090;18.348;2023-03-11T06:52:11;16.10;71.00
65582;DHT22;52231;40.090;18.348;2023-03-11T06:54:39;16.30;71.20
65582;DHT22;52231;40.090;18.348;2023-03-11T06:57:09;16.70;69.40
65582;DHT22;52231;40.090;18.348;2023-03-11T06:59:38;17.00;68.20
65582;DHT22;52231;40.090;18.348;2023-03-11T07:02:12;17.20;67.20
65582;DHT22;52231;40.090;18.348;2023-03-11T07:04:42;17.10;65.80
65582;DHT22;52231;40.090;18.348;2023-03-11T07:07:10;17.10;66.60
65582;DHT22;52231;40.090;18.348;2023-03-11T07:09:39;17.00;65.60
65582;DHT22;52231;40.090;18.348;2023-03-11T07:12:13;17.00;66.00
65582;DHT22;52231;40.090;18.348;2023-03-11T07:14:42;17.10;66.00
65582;DHT22;52231;40.090;18.348;2023-03-11T07:17:10;17.30;65.00
65582;DHT22;52231;40.090;18.348;2023-03-11T07:19:45;17.60;64.00
65582;DHT22;52231;40.090;18.348;2023-03-11T07:22:13;17.70;62.80
65582;DHT22;52231;40.090;18.348;2023-03-11T07:24:49;17.80;63.40
65582;DHT22;52231;40.090;18.348;2023-03-11T07:27:17;17.50;63.30
65582;DHT22;52231;40.090;18.348;2023-03-11T07:29:45;17.70;63.10
65582;DHT22;52231;40.090;18.348;2023-03-11T07:32:14;17.60;62.60
65582;DHT22;52231;40.090;18.348;2023-03-11T07:34:42;17.40;62.50
65582;DHT22;52231;40.090;18.348;2023-03-11T07:37:10;17.30;63.10
65582;DHT22;52231;40.090;18.348;2023-03-11T07:39:38;17.30;63.80
65582;DHT22;52231;40.090;18.348;2023-03-11T07:42:07;17.50;63.70
65582;DHT22;52231;40.090;18.348;2023-03-11T07:44:36;17.50;63.40
65582;DHT22;52231;40.090;18.348;2023-03-11T07:47:05;17.50;63.20
65582;DHT22;52231;40.090;18.348;2023-03-11T07:49:35;17.50;63.30
65582;DHT22;52231;40.090;18.348;2023-03-11T07:52:03;17.40;62.70
65582;DHT22;52231;40.090;18.348;2023-03-11T07:54:32;17.40;63.10
65582;DHT22;52231;40.090;18.348;2023-03-11T07:57:00;17.50;62.10
65582;DHT22;52231;40.090;18.348;2023-03-11T07:59:30;17.60;62.50
65582;DHT22;52231;40.090;18.348;2023-03-11T08:01:58;17.70;62.20
65582;DHT22;52231;40.090;18.348;2023-03-11T08:04:27;17.80;61.70
65582;DHT22;52231;40.090;18.348;2023-03-11T08:06:55;18.10;61.70
65582;DHT22;52231;40.090;18.348;2023-03-11T08:09:24;18.40;59.60
65582;DHT22;52231;40.090;18.348;2023-03-11T08:11:52;18.50;58.40
65582;DHT22;52231;40.090;18.348;2023-03-11T08:14:20;18.40;58.10
65582;DHT22;52231;40.090;18.348;2023-03-11T08:16:49;18.40;58.10
65582;DHT22;52231;40.090;18.348;2023-03-11T08:19:17;18.60;58.20
65582;DHT22;52231;40.090;18.348;2023-03-11T08:21:45;18.80;58.10
65582;DHT22;52231;40.090;18.348;2023-03-11T08:24:13;19.00;57.80
65582;DHT22;52231;40.090;18.348;2023-03-11T08:26:42;19.30;57.60
65582;DHT22;52231;40.090;18.348;2023-03-11T08:29:10;19.10;56.60
65582;DHT22;52231;40.090;18.348;2023-03-11T08:31:38;18.90;57.40
65582;DHT22;52231;40.090;18.348;2023-03-11T08:34:09;19.00;56.70
65582;DHT22;52231;40.090;18.348;2023-03-11T08:36:37;19.10;57.20
65582;DHT22;52231;40.090;18.348;2023-03-11T08:39:13;18.90;57.30
65582;DHT22;52231;40.090;18.348;2023-03-11T08:41:42;19.20;57.70
65582;DHT22;52231;40.090;18.348;2023-03-11T08:44:10;19.40;56.80
65582;DHT22;52231;40.090;18.348;2023-03-11T08:46:39;19.50;56.70
65582;DHT22;52231;40.090;18.348;2023-03-11T08:49:07;19.40;55.80
65582;DHT22;52231;40.090;18.348;2023-03-11T08:51:35;19.20;56.70
65582;DHT22;52231;40.090;18.348;2023-03-11T08:54:04;19.00;57.20
65582;DHT22;52231;40.090;18.348;2023-03-11T08:56:32;18.70;58.10
65582;DHT22;52231;40.090;18.348;2023-03-11T08:59:01;18.30;59.00
65582;DHT22;52231;40.090;18.348;2023-03-11T09:01:31;18.20;59.40
65582;DHT22;52231;40.090;18.348;2023-03-11T09:04:00;18.10;59.90
65582;DHT22;52231;40.090;18.348;2023-03-11T09:06:31;18.30;59.80
65582;DHT22;52231;40.090;18.348;2023-03-11T09:09:00;18.40;59.10
65582;DHT22;52231;40.090;18.348;2023-03-11T09:11:28;18.50;58.90
65582;DHT22;52231;40.090;18.348;2023-03-11T09:13:57;18.50;58.30
65582;DHT22;52231;40.090;18.348;2023-03-11T09:16:25;18.70;58.10
65582;DHT22;52231;40.090;18.348;2023-03-11T09:18:53;18.80;57.70
65582;DHT22;52231;40.090;18.348;2023-03-11T09:21:22;18.80;57.80
65582;DHT22;52231;40.090;18.348;2023-03-11T09:23:50;18.70;58.10
65582;DHT22;52231;40.090;18.348;2023-03-11T09:26:18;18.60;58.80
65582;DHT22;52231;40.090;18.348;2023-03-11T09:28:47;18.70;59.00
65582;DHT22;52231;40.090;18.348;2023-03-11T09:31:16;18.80;58.20
65582;DHT22;52231;40.090;18.348;2023-03-11T09:33:46;19.00;57.80
65582;DHT22;52231;40.090;18.348;2023-03-11T09:36:17;19.40;57.40
65582;DHT22;52231;40.090;18.348;2023-03-11T09:38:46;19.80;56.90
65582;DHT22;52231;40.090;18.348;2023-03-11T09:51:27;20.20;53.50
65582;DHT22;52231;40.090;18.348;2023-03-11T09:53:28;20.00;54.10
65582;DHT22;52231;40.090;18.348;2023-03-11T09:55:59;20.10;54.50
65582;DHT22;52231;40.090;18.348;2023-03-11T09:58:51;20.10;53.20
65582;DHT22;52231;40.090;18.348;2023-03-11T10:01:39;20.20;53.80
65582;DHT22;52231;40.090;18.348;2023-03-11T10:06:47;20.60;52.30
65582;DHT22;52231;40.090;18.348;2023-03-11T10:09:53;20.70;52.60
65582;DHT22;52231;40.090;18.348;2023-03-11T10:20:48;20.80;52.10
65582;DHT22;52231;40.090;18.348;2023-03-11T10:23:38;20.90;51.80
65582;DHT22;52231;40.090;18.348;2023-03-11T10:26:22;20.80;51.40
65582;DHT22;52231;40.090;18.348;2023-03-11T10:28:57;20.50;51.60
65582;DHT22;52231;40.090;18.348;2023-03-11T10:31:43;20.30;51.90
65582;DHT22;52231;40.090;18.348;2023-03-11T10:39:32;20.50;51.30
65582;DHT22;52231;40.090;18.348;2023-03-11T10:42:05;20.80;50.50
65582;DHT22;52231;40.090;18.348;2023-03-11T10:44:38;20.80;50.30
65582;DHT22;52231;40.090;18.348;2023-03-11T10:47:18;21.00;49.90
65582;DHT22;52231;40.090;18.348;2023-03-11T10:49:47;21.00;51.00
65582;DHT22;52231;40.090;18.348;2023-03-11T10:52:16;21.30;50.90
65582;DHT22;52231;40.090;18.348;2023-03-11T10:54:47;21.30;51.00
65582;DHT22;52231;40.090;18.348;2023-03-11T10:57:27;21.60;49.90
65582;DHT22;52231;40.090;18.348;2023-03-11T10:59:56;21.30;50.00
65582;DHT22;52231;40.090;18.348;2023-03-11T11:08:12;20.90;51.60
65582;DHT22;52231;40.090;18.348;2023-03-11T11:10:56;20.90;51.80
65582;DHT22;52231;40.090;18.348;2023-03-11T11:13:30;21.00;52.10
65582;DHT22;52231;40.090;18.348;2023-03-11T11:16:16;21.00;51.80
65582;DHT22;52231;40.090;18.348;2023-03-11T11:21:36;21.30;52.50
65582;DHT22;52231;40.090;18.348;2023-03-11T11:24:17;21.60;52.30
65582;DHT22;52231;40.090;18.348;2023-03-11T11:29:47;21.80;50.20
65582;DHT22;52231;40.090;18.348;2023-03-11T11:32:29;21.80;50.30
65582;DHT22;52231;40.090;18.348;2023-03-11T11:37:40;21.50;50.20
65582;DHT22;52231;40.090;18.348;2023-03-11T11:42:58;21.60;50.30
65582;DHT22;52231;40.090;18.348;2023-03-11T11:45:41;21.60;50.70
65582;DHT22;52231;40.090;18.348;2023-03-11T11:48:23;21.60;51.10
65582;DHT22;52231;40.090;18.348;2023-03-11T11:50:58;21.80;51.50
65582;DHT22;52231;40.090;18.348;2023-03-11T11:56:09;21.30;49.80
65582;DHT22;52231;40.090;18.348;2023-03-11T11:58:39;21.60;50.80
65582;DHT22;52231;40.090;18.348;2023-03-11T12:01:18;21.50;51.20
65582;DHT22;52231;40.090;18.348;2023-03-11T12:14:42;20.60;54.30
65582;DHT22;52231;40.090;18.348;2023-03-11T12:17:40;20.40;53.70
65582;DHT22;52231;40.090;18.348;2023-03-11T12:20:36;20.40;52.90
65582;DHT22;52231;40.090;18.348;2023-03-11T12:23:19;20.70;53.40
65582;DHT22;52231;40.090;18.348;2023-03-11T12:26:12;20.70;53.70
65582;DHT22;52231;40.090;18.348;2023-03-11T12:28:49;20.60;53.40
65582;DHT22;52231;40.090;18.348;2023-03-11T12:31:19;20.50;53.30
65582;DHT22;52231;40.090;18.348;2023-03-11T12:33:57;20.90;54.40
65582;DHT22;52231;40.090;18.348;2023-03-11T12:36:38;21.00;52.90
65582;DHT22;52231;40.090;18.348;2023-03-11T12:39:26;20.90;52.80
65582;DHT22;52231;40.090;18.348;2023-03-11T12:42:20;20.50;53.80
65582;DHT22;52231;40.090;18.348;2023-03-11T12:44:50;20.50;54.50
65582;DHT22;52231;40.090;18.348;2023-03-11T12:47:21;20.20;54.90
65582;DHT22;52231;40.090;18.348;2023-03-11T12:49:54;20.00;56.10
65582;DHT22;52231;40.090;18.348;2023-03-11T12:52:27;20.00;55.90
65582;DHT22;52231;40.090;18.348;2023-03-11T12:57:36;19.90;57.00
65582;DHT22;52231;40.090;18.348;2023-03-11T13:05:53;20.30;56.00
65582;DHT22;52231;40.090;18.348;2023-03-11T13:08:23;20.60;55.70
65582;DHT22;52231;40.090;18.348;2023-03-11T13:16:37;20.60;56.10
65582;DHT22;52231;40.090;18.348;2023-03-11T13:21:54;20.80;55.00
65582;DHT22;52231;40.090;18.348;2023-03-11T13:29:44;21.00;55.00
65582;DHT22;52231;40.090;18.348;2023-03-11T13:35:44;20.90;54.80
65582;DHT22;52231;40.090;18.348;2023-03-11T13:41:26;20.90;55.10
65582;DHT22;52231;40.090;18.348;2023-03-11T13:44:12;20.90;54.90
65582;DHT22;52231;40.090;18.348;2023-03-11T13:46:42;21.00;55.40
65582;DHT22;52231;40.090;18.348;2023-03-11T13:50:00;21.10;54.90
65582;DHT22;52231;40.090;18.348;2023-03-11T13:52:40;21.30;54.60
65582;DHT22;52231;40.090;18.348;2023-03-11T13:55:37;21.60;54.10
65582;DHT22;52231;40.090;18.348;2023-03-11T13:58:22;22.00;52.90
65582;DHT22;52231;40.090;18.348;2023-03-11T14:00:54;22.30;52.10
65582;DHT22;52231;40.090;18.348;2023-03-11T14:03:25;22.60;51.90
65582;DHT22;52231;40.090;18.348;2023-03-11T14:06:06;22.40;50.60
65582;DHT22;52231;40.090;18.348;2023-03-11T14:08:37;22.40;51.20
65582;DHT22;52231;40.090;18.348;2023-03-11T14:13:44;22.20;50.50
65582;DHT22;52231;40.090;18.348;2023-03-11T14:18:47;21.80;50.40
65582;DHT22;52231;40.090;18.348;2023-03-11T14:21:28;21.60;50.70
65582;DHT22;52231;40.090;18.348;2023-03-11T14:23:58;21.30;50.70
65582;DHT22;52231;40.090;18.348;2023-03-11T14:26:30;21.10;50.70
65582;DHT22;52231;40.090;18.348;2023-03-11T14:29:10;21.20;50.90
65582;DHT22;52231;40.090;18.348;2023-03-11T14:31:43;21.10;50.90
65582;DHT22;52231;40.090;18.348;2023-03-11T14:34:20;21.20;50.30
65582;DHT22;52231;40.090;18.348;2023-03-11T14:36:51;21.10;50.10
65582;DHT22;52231;40.090;18.348;2023-03-11T14:39:29;21.10;50.50
65582;DHT22;52231;40.090;18.348;2023-03-11T14:45:01;21.00;50.80
65582;DHT22;52231;40.090;18.348;2023-03-11T14:47:36;20.90;50.30
65582;DHT22;52231;40.090;18.348;2023-03-11T14:50:14;20.90;50.90
65582;DHT22;52231;40.090;18.348;2023-03-11T14:55:29;21.00;50.80
65582;DHT22;52231;40.090;18.348;2023-03-11T14:58:06;20.90;49.40
65582;DHT22;52231;40.090;18.348;2023-03-11T15:00:49;20.80;49.20
65582;DHT22;52231;40.090;18.348;2023-03-11T15:03:28;20.90;49.60
65582;DHT22;52231;40.090;18.348;2023-03-11T15:06:08;21.00;49.10
65582;DHT22;52231;40.090;18.348;2023-03-11T15:08:47;20.90;48.80
65582;DHT22;52231;40.090;18.348;2023-03-11T15:11:22;20.90;49.50
65582;DHT22;52231;40.090;18.348;2023-03-11T15:14:15;20.80;49.20
65582;DHT22;52231;40.090;18.348;2023-03-11T15:16:44;20.80;49.30
65582;DHT22;52231;40.090;18.348;2023-03-11T15:19:31;20.80;49.00
65582;DHT22;52231;40.090;18.348;2023-03-11T15:22:31;20.60;49.20
65582;DHT22;52231;40.090;18.348;2023-03-11T15:25:11;20.50;49.10
65582;DHT22;52231;40.090;18.348;2023-03-11T15:27:42;20.50;49.40
65582;DHT22;52231;40.090;18.348;2023-03-11T15:30:22;20.30;49.50
65582;DHT22;52231;40.090;18.348;2023-03-11T15:32:51;20.20;49.70
65582;DHT22;52231;40.090;18.348;2023-03-11T15:35:26;20.20;50.40
65582;DHT22;52231;40.090;18.348;2023-03-11T15:38:19;20.20;50.40
65582;DHT22;52231;40.090;18.348;2023-03-11T15:40:57;20.00;51.10
65582;DHT22;52231;40.090;18.348;2023-03-11T15:43:32;19.60;52.00
65582;DHT22;52231;40.090;18.348;2023-03-11T15:46:02;18.90;52.40
65582;DHT22;52231;40.090;18.348;2023-03-11T15:48:30;18.60;54.00
65582;DHT22;52231;40.090;18.348;2023-03-11T15:50:59;18.40;54.50
65582;DHT22;52231;40.090;18.348;2023-03-11T15:53:29;18.30;55.00
65582;DHT22;52231;40.090;18.348;2023-03-11T15:56:02;18.30;55.00
65582;DHT22;52231;40.090;18.348;2023-03-11T15:58:36;18.30;54.50
65582;DHT22;52231;40.090;18.348;2023-03-11T16:01:06;18.20;55.20
65582;DHT22;52231;40.090;18.348;2023-03-11T16:03:35;17.90;56.00
65582;DHT22;52231;40.090;18.348;2023-03-11T16:06:06;17.80;57.20
65582;DHT22;52231;40.090;18.348;2023-03-11T16:08:34;17.70;58.10
65582;DHT22;52231;40.090;18.348;2023-03-11T16:11:02;17.60;58.90
65582;DHT22;52231;40.090;18.348;2023-03-11T16:13:31;17.60;59.40
65582;DHT22;52231;40.090;18.348;2023-03-11T16:15:59;17.70;59.50
65582;DHT22;52231;40.090;18.348;2023-03-11T16:18:33;17.60;59.40
65582;DHT22;52231;40.090;18.348;2023-03-11T16:21:03;17.60;59.20
65582;DHT22;52231;40.090;18.348;2023-03-11T16:23:37;17.40;58.80
65582;DHT22;52231;40.090;18.348;2023-03-11T16:26:18;17.30;59.00
65582;DHT22;52231;40.090;18.348;2023-03-11T16:28:47;17.10;59.50
65582;DHT22;52231;40.090;18.348;2023-03-11T16:31:17;17.00;60.10
65582;DHT22;52231;40.090;18.348;2023-03-11T16:33:46;16.90;60.50
65582;DHT22;52231;40.090;18.348;2023-03-11T16:36:14;16.80;61.00
65582;DHT22;52231;40.090;18.348;2023-03-11T16:38:47;16.70;61.50
65582;DHT22;52231;40.090;18.348;2023-03-11T16:41:16;16.50;61.20
65582;DHT22;52231;40.090;18.348;2023-03-11T16:43:45;16.50;61.80
65582;DHT22;52231;40.090;18.348;2023-03-11T16:46:14;16.50;61.40
65582;DHT22;52231;40.090;18.348;2023-03-11T16:48:42;16.50;61.00
65582;DHT22;52231;40.090;18.348;2023-03-11T16:51:10;16.50;60.80
65582;DHT22;52231;40.090;18.348;2023-03-11T16:53:39;16.40;60.80
65582;DHT22;52231;40.090;18.348;2023-03-11T16:56:07;16.30;61.40
65582;DHT22;52231;40.090;18.348;2023-03-11T16:58:39;16.30;62.20
65582;DHT22;52231;40.090;18.348;2023-03-11T17:01:10;16.20;63.10
65582;DHT22;52231;40.090;18.348;2023-03-11T17:03:38;16.10;64.10
65582;DHT22;52231;40.090;18.348;2023-03-11T17:06:09;15.90;64.90
65582;DHT22;52231;40.090;18.348;2023-03-11T17:08:37;15.80;66.00
65582;DHT22;52231;40.090;18.348;2023-03-11T17:11:13;15.70;66.90
65582;DHT22;52231;40.090;18.348;2023-03-11T17:13:42;15.50;68.20
65582;DHT22;52231;40.090;18.348;2023-03-11T17:16:11;15.40;69.10
65582;DHT22;52231;40.090;18.348;2023-03-11T17:18:41;15.30;70.00
65582;DHT22;52231;40.090;18.348;2023-03-11T17:21:12;15.20;70.70
65582;DHT22;52231;40.090;18.348;2023-03-11T17:23:42;15.10;71.20
65582;DHT22;52231;40.090;18.348;2023-03-11T17:26:17;15.10;72.30
65582;DHT22;52231;40.090;18.348;2023-03-11T17:28:48;15.00;73.40
65582;DHT22;52231;40.090;18.348;2023-03-11T17:31:16;14.90;74.30